createdAt,value
2019-03-19T00:00:22.809Z,6.4
2019-03-19T00:01:22.784Z,6.4
2019-03-19T00:02:22.798Z,6.4
2019-03-19T00:03:22.823Z,6.4
2019-03-19T00:04:22.813Z,6.4
2019-03-19T00:05:22.846Z,6.4
2019-03-19T00:06:22.809Z,6.3
2019-03-19T00:07:25.073Z,6.3
2019-03-19T00:08:22.858Z,6.3
2019-03-19T00:09:22.858Z,6.3
2019-03-19T00:10:22.862Z,6.3
2019-03-19T00:11:23.043Z,6.3
2019-03-19T00:12:22.933Z,6.2
2019-03-19T00:13:22.882Z,6.2
2019-03-19T00:14:22.887Z,6.2
2019-03-19T00:15:22.905Z,6.2
2019-03-19T00:16:22.969Z,6.2
2019-03-19T00:17:22.991Z,6.1
2019-03-19T00:18:22.943Z,6.1
2019-03-19T00:19:22.951Z,6.1
2019-03-19T00:20:22.938Z,6.1
2019-03-19T00:21:22.997Z,6.1
2019-03-19T00:22:22.965Z,6.1
2019-03-19T00:23:22.970Z,6.1
2019-03-19T00:24:22.997Z,6.1
2019-03-19T00:25:29.712Z,6.1
2019-03-19T00:26:23.002Z,6.1
2019-03-19T00:27:23.004Z,6.1
2019-03-19T00:28:23.053Z,6
2019-03-19T00:29:23.029Z,6
2019-03-19T00:30:23.043Z,6
2019-03-19T00:31:23.034Z,6
2019-03-19T00:32:23.295Z,6
2019-03-19T00:33:23.052Z,6
2019-03-19T00:34:24.078Z,6
2019-03-19T00:35:23.092Z,5.9
2019-03-19T00:36:23.094Z,5.9
2019-03-19T00:37:23.073Z,5.9
2019-03-19T00:38:23.125Z,5.9
2019-03-19T00:39:23.104Z,5.9
2019-03-19T00:40:23.115Z,5.9
2019-03-19T00:41:23.115Z,5.9
2019-03-19T00:42:23.143Z,5.9
2019-03-19T00:43:23.198Z,5.9
2019-03-19T00:44:23.132Z,5.9
2019-03-19T00:45:23.171Z,5.8
2019-03-19T00:46:23.168Z,5.8
2019-03-19T00:47:23.177Z,5.8
2019-03-19T00:48:23.174Z,5.8
2019-03-19T00:49:23.215Z,5.8
2019-03-19T00:50:23.258Z,5.8
2019-03-19T00:51:23.221Z,5.8
2019-03-19T00:52:23.201Z,5.8
2019-03-19T00:53:23.251Z,5.8
2019-03-19T00:54:23.218Z,5.8
2019-03-19T00:55:23.226Z,5.8
2019-03-19T00:56:23.254Z,5.8
2019-03-19T00:57:23.237Z,5.8
2019-03-19T00:58:23.227Z,5.8
2019-03-19T00:59:23.238Z,5.8
2019-03-19T01:00:23.267Z,5.7
2019-03-19T01:01:23.282Z,5.7
2019-03-19T01:02:23.286Z,5.7
2019-03-19T01:03:23.282Z,5.7
2019-03-19T01:04:23.308Z,5.7
2019-03-19T01:05:23.284Z,5.7
2019-03-19T01:06:23.319Z,5.7
2019-03-19T01:07:23.287Z,5.7
2019-03-19T01:08:23.288Z,5.7
2019-03-19T01:09:23.325Z,5.7
2019-03-19T01:10:23.323Z,5.7
2019-03-19T01:11:23.323Z,5.7
2019-03-19T01:12:23.354Z,5.7
2019-03-19T01:13:23.342Z,5.6
2019-03-19T01:14:23.376Z,5.6
2019-03-19T01:15:23.389Z,5.6
2019-03-19T01:16:23.378Z,5.6
2019-03-19T01:17:23.357Z,5.6
2019-03-19T01:18:23.385Z,5.6
2019-03-19T01:19:23.389Z,5.5
2019-03-19T01:20:23.393Z,5.5
2019-03-19T01:21:23.455Z,5.5
2019-03-19T01:22:23.403Z,5.5
2019-03-19T01:23:23.405Z,5.5
2019-03-19T01:24:23.440Z,5.5
2019-03-19T01:25:23.415Z,5.5
2019-03-19T01:26:23.443Z,5.4
2019-03-19T01:27:23.433Z,5.4
2019-03-19T01:28:23.473Z,5.4
2019-03-19T01:29:23.438Z,5.4
2019-03-19T01:30:23.450Z,5.4
2019-03-19T01:31:23.450Z,5.4
2019-03-19T01:32:23.546Z,5.3
2019-03-19T01:33:23.463Z,5.3
2019-03-19T01:34:23.513Z,5.3
2019-03-19T01:35:23.480Z,5.3
2019-03-19T01:36:23.486Z,5.3
2019-03-19T01:37:23.485Z,5.2
2019-03-19T01:38:25.797Z,5.2
2019-03-19T01:39:23.503Z,5.2
2019-03-19T01:40:23.511Z,5.2
2019-03-19T01:41:23.524Z,5.2
2019-03-19T01:42:23.501Z,5.2
2019-03-19T01:43:23.495Z,5.1
2019-03-19T01:44:23.541Z,5.1
2019-03-19T01:45:23.564Z,5.1
2019-03-19T01:46:23.533Z,5.1
2019-03-19T01:47:23.516Z,5.1
2019-03-19T01:48:23.557Z,5
2019-03-19T01:49:23.526Z,5
2019-03-19T01:50:23.529Z,5
2019-03-19T01:51:23.586Z,5
2019-03-19T01:52:23.556Z,5
2019-03-19T01:53:23.595Z,5
2019-03-19T01:54:23.713Z,5
2019-03-19T01:55:25.480Z,5
2019-03-19T01:56:23.689Z,5
2019-03-19T01:57:23.570Z,5
2019-03-19T01:58:23.576Z,5
2019-03-19T01:59:23.577Z,4.9
2019-03-19T02:00:23.614Z,4.9
2019-03-19T02:01:23.566Z,4.9
2019-03-19T02:02:23.592Z,4.9
2019-03-19T02:03:23.607Z,4.9
2019-03-19T02:04:23.630Z,4.9
2019-03-19T02:05:23.589Z,4.9
2019-03-19T02:06:23.612Z,4.9
2019-03-19T02:07:23.629Z,4.9
2019-03-19T02:08:23.620Z,4.8
2019-03-19T02:09:23.625Z,4.8
2019-03-19T02:10:23.605Z,4.8
2019-03-19T02:11:23.603Z,4.8
2019-03-19T02:12:23.667Z,4.8
2019-03-19T02:13:23.603Z,4.8
2019-03-19T02:14:23.626Z,4.8
2019-03-19T02:15:23.639Z,4.8
2019-03-19T02:16:24.222Z,4.8
2019-03-19T02:17:23.675Z,4.8
2019-03-19T02:18:23.662Z,4.8
2019-03-19T02:19:23.677Z,4.8
2019-03-19T02:20:23.630Z,4.8
2019-03-19T02:21:23.649Z,4.8
2019-03-19T02:22:23.696Z,4.8
2019-03-19T02:23:23.688Z,4.8
2019-03-19T02:24:23.652Z,4.8
2019-03-19T02:25:23.659Z,4.8
2019-03-19T02:26:23.673Z,4.8
2019-03-19T02:27:23.678Z,4.8
2019-03-19T02:28:23.691Z,4.9
2019-03-19T02:29:23.668Z,4.9
2019-03-19T02:30:23.672Z,4.9
2019-03-19T02:31:23.697Z,4.9
2019-03-19T02:32:23.710Z,4.9
2019-03-19T02:33:23.680Z,4.9
2019-03-19T02:34:23.714Z,4.9
2019-03-19T02:35:23.737Z,4.9
2019-03-19T02:36:23.692Z,4.9
2019-03-19T02:37:23.693Z,4.9
2019-03-19T02:38:23.706Z,4.9
2019-03-19T02:39:23.715Z,4.9
2019-03-19T02:40:23.706Z,4.9
2019-03-19T02:41:23.797Z,4.9
2019-03-19T02:42:23.819Z,4.9
2019-03-19T02:43:23.733Z,4.9
2019-03-19T02:44:23.792Z,5
2019-03-19T02:45:23.753Z,5
2019-03-19T02:46:23.739Z,5
2019-03-19T02:47:23.722Z,5
2019-03-19T02:48:23.750Z,5
2019-03-19T02:49:23.778Z,5
2019-03-19T02:50:23.741Z,5
2019-03-19T02:51:23.762Z,5
2019-03-19T02:52:23.764Z,5
2019-03-19T02:53:23.767Z,5
2019-03-19T02:54:23.780Z,5.1
2019-03-19T02:55:23.783Z,5.1
2019-03-19T02:56:32.245Z,5.1
2019-03-19T02:57:23.782Z,5.1
2019-03-19T02:58:23.771Z,5.1
2019-03-19T02:59:23.802Z,5.1
2019-03-19T03:00:23.771Z,5.1
2019-03-19T03:01:23.772Z,5.1
2019-03-19T03:02:23.757Z,5.1
2019-03-19T03:03:23.974Z,5
2019-03-19T03:04:23.777Z,5
2019-03-19T03:05:23.897Z,5
2019-03-19T03:06:23.826Z,5
2019-03-19T03:07:23.808Z,5
2019-03-19T03:08:23.813Z,5
2019-03-19T03:09:23.822Z,5
2019-03-19T03:10:23.814Z,5
2019-03-19T03:11:23.785Z,5
2019-03-19T03:12:23.860Z,5
2019-03-19T03:13:23.796Z,5
2019-03-19T03:14:23.793Z,5
2019-03-19T03:15:23.800Z,5
2019-03-19T03:16:23.844Z,5
2019-03-19T03:17:23.827Z,4.9
2019-03-19T03:18:23.851Z,4.9
2019-03-19T03:19:23.845Z,4.9
2019-03-19T03:20:23.833Z,4.9
2019-03-19T03:21:23.859Z,4.9
2019-03-19T03:22:23.928Z,4.9
2019-03-19T03:23:23.864Z,5
2019-03-19T03:24:23.875Z,5
2019-03-19T03:25:23.888Z,5
2019-03-19T03:26:23.834Z,5
2019-03-19T03:27:23.875Z,5
2019-03-19T03:28:23.894Z,5
2019-03-19T03:29:23.894Z,5
2019-03-19T03:30:24.093Z,5
2019-03-19T03:31:23.870Z,5
2019-03-19T03:32:23.948Z,5
2019-03-19T03:33:23.881Z,4.9
2019-03-19T03:34:23.913Z,4.9
2019-03-19T03:35:23.903Z,4.9
2019-03-19T03:36:24.019Z,4.9
2019-03-19T03:37:23.944Z,4.9
2019-03-19T03:38:23.907Z,4.9
2019-03-19T03:39:23.943Z,4.9
2019-03-19T03:40:23.912Z,4.9
2019-03-19T03:41:23.981Z,4.9
2019-03-19T03:42:23.923Z,4.8
2019-03-19T03:43:23.928Z,4.8
2019-03-19T03:44:23.974Z,4.8
2019-03-19T03:45:23.953Z,4.8
2019-03-19T03:46:23.971Z,4.8
2019-03-19T03:47:23.948Z,4.8
2019-03-19T03:48:23.960Z,4.8
2019-03-19T03:49:23.957Z,4.8
2019-03-19T03:50:23.961Z,4.8
2019-03-19T03:51:24.082Z,4.8
2019-03-19T03:52:23.968Z,4.8
2019-03-19T03:53:24.007Z,4.9
2019-03-19T03:54:24.039Z,4.9
2019-03-19T03:55:24.012Z,4.9
2019-03-19T03:56:24.079Z,4.9
2019-03-19T03:57:24.060Z,4.9
2019-03-19T03:58:24.058Z,4.9
2019-03-19T03:59:24.070Z,4.9
2019-03-19T04:00:24.178Z,4.9
2019-03-19T04:01:24.189Z,4.9
2019-03-19T04:02:24.095Z,4.9
2019-03-19T04:03:26.316Z,4.9
2019-03-19T04:04:24.103Z,4.9
2019-03-19T04:05:24.280Z,4.9
2019-03-19T04:06:24.156Z,4.9
2019-03-19T04:07:24.185Z,4.9
2019-03-19T04:08:24.266Z,4.9
2019-03-19T04:09:24.137Z,4.9
2019-03-19T04:10:24.266Z,5
2019-03-19T04:11:24.172Z,5
2019-03-19T04:12:24.178Z,5
2019-03-19T04:13:24.212Z,5
2019-03-19T04:14:24.242Z,5
2019-03-19T04:15:24.235Z,5
2019-03-19T04:16:24.219Z,5
2019-03-19T04:17:24.230Z,4.9
2019-03-19T04:18:24.229Z,4.9
2019-03-19T04:19:24.248Z,4.9
2019-03-19T04:20:24.374Z,4.9
2019-03-19T04:21:24.318Z,4.9
2019-03-19T04:22:24.275Z,4.9
2019-03-19T04:23:24.278Z,4.9
2019-03-19T04:24:24.305Z,4.9
2019-03-19T04:25:24.311Z,4.9
2019-03-19T04:26:24.315Z,4.9
2019-03-19T04:27:24.303Z,4.9
2019-03-19T04:28:24.302Z,4.9
2019-03-19T04:29:24.343Z,4.8
2019-03-19T04:30:24.342Z,4.8
2019-03-19T04:31:24.350Z,4.8
2019-03-19T04:32:24.401Z,4.8
2019-03-19T04:33:24.375Z,4.8
2019-03-19T04:34:24.348Z,4.8
2019-03-19T04:35:24.358Z,4.8
2019-03-19T04:36:24.401Z,4.8
2019-03-19T04:37:24.389Z,4.8
2019-03-19T04:38:24.405Z,4.7
2019-03-19T04:39:24.394Z,4.7
2019-03-19T04:40:24.378Z,4.8
2019-03-19T04:41:24.402Z,4.7
2019-03-19T04:42:24.460Z,4.7
2019-03-19T04:43:24.493Z,4.7
2019-03-19T04:44:26.681Z,4.7
2019-03-19T04:45:24.447Z,4.7
2019-03-19T04:46:24.464Z,4.8
2019-03-19T04:47:24.449Z,4.8
2019-03-19T04:48:24.478Z,4.8
2019-03-19T04:49:24.456Z,4.8
2019-03-19T04:50:24.493Z,4.8
2019-03-19T04:51:24.480Z,4.7
2019-03-19T04:52:24.760Z,4.7
2019-03-19T04:53:24.517Z,4.7
2019-03-19T04:54:24.531Z,4.7
2019-03-19T04:55:24.548Z,4.7
2019-03-19T04:56:24.520Z,4.7
2019-03-19T04:57:26.909Z,4.7
2019-03-19T04:58:24.526Z,4.7
2019-03-19T04:59:24.511Z,4.7
2019-03-19T05:00:24.551Z,4.7
2019-03-19T05:01:24.521Z,4.7
2019-03-19T05:02:24.604Z,4.7
2019-03-19T05:03:24.508Z,4.7
2019-03-19T05:04:24.546Z,4.7
2019-03-19T05:05:24.528Z,4.6
2019-03-19T05:06:24.545Z,4.6
2019-03-19T05:07:24.547Z,4.6
2019-03-19T05:08:24.552Z,4.6
2019-03-19T05:09:24.557Z,4.6
2019-03-19T05:10:24.592Z,4.6
2019-03-19T05:11:24.615Z,4.5
2019-03-19T05:12:24.568Z,4.5
2019-03-19T05:13:24.679Z,4.5
2019-03-19T05:14:24.570Z,4.5
2019-03-19T05:15:24.616Z,4.5
2019-03-19T05:16:24.588Z,4.5
2019-03-19T05:17:24.634Z,4.4
2019-03-19T05:18:24.701Z,4.4
2019-03-19T05:19:24.606Z,4.4
2019-03-19T05:20:24.649Z,4.4
2019-03-19T05:21:24.612Z,4.4
2019-03-19T05:22:24.650Z,4.4
2019-03-19T05:23:24.656Z,4.3
2019-03-19T05:24:24.651Z,4.3
2019-03-19T05:25:24.682Z,4.3
2019-03-19T05:26:24.662Z,4.3
2019-03-19T05:27:24.784Z,4.3
2019-03-19T05:28:24.709Z,4.3
2019-03-19T05:29:24.692Z,4.3
2019-03-19T05:30:28.197Z,4.3
2019-03-19T05:31:24.716Z,4.3
2019-03-19T05:32:24.756Z,4.3
2019-03-19T05:33:24.825Z,4.3
2019-03-19T05:34:24.721Z,4.3
2019-03-19T05:35:24.730Z,4.3
2019-03-19T05:36:24.725Z,4.3
2019-03-19T05:37:24.737Z,4.3
2019-03-19T05:38:24.799Z,4.3
2019-03-19T05:39:24.752Z,4.3
2019-03-19T05:40:24.818Z,4.2
2019-03-19T05:41:24.755Z,4.2
2019-03-19T05:42:24.799Z,4.2
2019-03-19T05:43:24.745Z,4.2
2019-03-19T05:44:24.839Z,4.2
2019-03-19T05:45:24.747Z,4.2
2019-03-19T05:46:24.771Z,4.2
2019-03-19T05:47:24.798Z,4.2
2019-03-19T05:48:24.839Z,4.2
2019-03-19T05:49:24.790Z,4.2
2019-03-19T05:50:24.772Z,4.2
2019-03-19T05:51:24.963Z,4.2
2019-03-19T05:52:24.785Z,4.2
2019-03-19T05:53:24.902Z,4.2
2019-03-19T05:54:24.831Z,4.2
2019-03-19T05:55:24.847Z,4.2
2019-03-19T05:56:24.800Z,4.2
2019-03-19T05:57:24.806Z,4.2
2019-03-19T05:58:24.848Z,4.3
2019-03-19T05:59:24.819Z,4.3
2019-03-19T06:00:24.835Z,4.3
2019-03-19T06:01:24.836Z,4.4
2019-03-19T06:02:24.893Z,4.4
2019-03-19T06:03:24.882Z,4.4
2019-03-19T06:04:24.872Z,4.4
2019-03-19T06:05:24.873Z,4.4
2019-03-19T06:06:24.868Z,4.5
2019-03-19T06:07:24.868Z,4.5
2019-03-19T06:08:24.892Z,4.5
2019-03-19T06:09:24.854Z,4.5
2019-03-19T06:10:26.073Z,4.6
2019-03-19T06:11:24.903Z,4.6
2019-03-19T06:12:24.924Z,4.6
2019-03-19T06:13:24.864Z,4.6
2019-03-19T06:14:24.895Z,4.7
2019-03-19T06:15:24.893Z,4.7
2019-03-19T06:16:24.883Z,4.7
2019-03-19T06:17:24.880Z,4.7
2019-03-19T06:18:34.486Z,4.8
2019-03-19T06:19:24.917Z,4.8
2019-03-19T06:20:24.873Z,4.8
2019-03-19T06:21:24.892Z,4.8
2019-03-19T06:22:24.942Z,4.8
2019-03-19T06:23:24.917Z,4.9
2019-03-19T06:24:24.962Z,4.9
2019-03-19T06:25:25.421Z,4.9
2019-03-19T06:26:24.919Z,4.9
2019-03-19T06:27:24.932Z,4.9
2019-03-19T06:28:24.977Z,4.9
2019-03-19T06:29:24.939Z,5
2019-03-19T06:30:24.938Z,5
2019-03-19T06:31:24.986Z,5
2019-03-19T06:32:25.009Z,5
2019-03-19T06:33:24.939Z,5
2019-03-19T06:34:25.005Z,5
2019-03-19T06:35:24.977Z,5
2019-03-19T06:36:25.045Z,5
2019-03-19T06:37:24.972Z,5
2019-03-19T06:38:24.992Z,5.1
2019-03-19T06:39:24.992Z,5.1
2019-03-19T06:40:25.022Z,5.1
2019-03-19T06:41:25.032Z,5.1
2019-03-19T06:42:25.022Z,5.1
2019-03-19T06:43:25.020Z,5.2
2019-03-19T06:44:25.059Z,5.2
2019-03-19T06:45:25.017Z,5.2
2019-03-19T06:46:25.034Z,5.2
2019-03-19T06:47:25.083Z,5.2
2019-03-19T06:48:25.079Z,5.2
2019-03-19T06:49:25.096Z,5.3
2019-03-19T06:50:25.097Z,5.3
2019-03-19T06:51:25.111Z,5.3
2019-03-19T06:52:25.095Z,5.3
2019-03-19T06:53:25.138Z,5.3
2019-03-19T06:54:25.130Z,5.4
2019-03-19T06:55:25.145Z,5.4
2019-03-19T06:56:25.339Z,5.4
2019-03-19T06:57:25.187Z,5.4
2019-03-19T06:58:25.135Z,5.5
2019-03-19T06:59:25.141Z,5.5
2019-03-19T07:00:25.141Z,5.5
2019-03-19T07:01:25.170Z,5.5
2019-03-19T07:02:25.187Z,5.5
2019-03-19T07:03:25.169Z,5.5
2019-03-19T07:04:25.160Z,5.5
2019-03-19T07:05:25.221Z,5.6
2019-03-19T07:06:25.759Z,5.6
2019-03-19T07:07:25.223Z,5.6
2019-03-19T07:08:25.198Z,5.6
2019-03-19T07:09:25.221Z,5.6
2019-03-19T07:10:25.211Z,5.6
2019-03-19T07:11:25.195Z,5.7
2019-03-19T07:12:25.247Z,5.7
2019-03-19T07:13:25.216Z,5.7
2019-03-19T07:14:25.245Z,5.8
2019-03-19T07:15:25.220Z,5.8
2019-03-19T07:16:25.236Z,5.9
2019-03-19T07:17:25.239Z,5.9
2019-03-19T07:18:25.294Z,6
2019-03-19T07:19:25.256Z,6
2019-03-19T07:20:25.253Z,6
2019-03-19T07:21:25.244Z,6.1
2019-03-19T07:22:25.280Z,6.1
2019-03-19T07:23:25.289Z,6.1
2019-03-19T07:24:25.264Z,6.2
2019-03-19T07:25:25.294Z,6.2
2019-03-19T07:26:25.260Z,6.2
2019-03-19T07:27:25.295Z,6.3
2019-03-19T07:28:25.391Z,6.3
2019-03-19T07:29:25.293Z,6.3
2019-03-19T07:30:25.339Z,6.3
2019-03-19T07:31:30.608Z,6.3
2019-03-19T07:32:25.356Z,6.3
2019-03-19T07:33:25.342Z,6.3
2019-03-19T07:34:25.342Z,6.3
2019-03-19T07:35:25.364Z,6.3
2019-03-19T07:36:25.331Z,6.3
2019-03-19T07:37:25.343Z,6.2
2019-03-19T07:38:25.360Z,6.2
2019-03-19T07:39:25.410Z,6.2
2019-03-19T07:40:25.382Z,6.2
2019-03-19T07:41:25.434Z,6.2
2019-03-19T07:42:25.439Z,6.2
2019-03-19T07:43:25.419Z,6.3
2019-03-19T07:44:25.432Z,6.3
2019-03-19T07:45:25.414Z,6.4
2019-03-19T07:46:25.449Z,6.5
2019-03-19T07:47:25.446Z,6.5
2019-03-19T07:48:25.450Z,6.6
2019-03-19T07:49:25.481Z,6.7
2019-03-19T07:50:25.514Z,6.8
2019-03-19T07:51:25.510Z,6.8
2019-03-19T07:52:25.475Z,6.8
2019-03-19T07:53:25.503Z,6.8
2019-03-19T07:54:25.519Z,6.9
2019-03-19T07:55:25.535Z,6.9
2019-03-19T07:56:25.553Z,6.9
2019-03-19T07:57:25.675Z,6.9
2019-03-19T07:58:32.957Z,6.9
2019-03-19T07:59:25.615Z,6.9
2019-03-19T08:00:25.626Z,7
2019-03-19T08:01:25.619Z,7
2019-03-19T08:02:25.645Z,7
2019-03-19T08:03:25.673Z,7.1
2019-03-19T08:04:25.650Z,7.1
2019-03-19T08:05:32.816Z,7.1
2019-03-19T08:06:25.714Z,7.1
2019-03-19T08:07:25.726Z,7.1
2019-03-19T08:08:25.750Z,7
2019-03-19T08:09:25.796Z,7
2019-03-19T08:10:25.771Z,7
2019-03-19T08:11:25.754Z,7
2019-03-19T08:12:25.782Z,7
2019-03-19T08:13:25.880Z,7
2019-03-19T08:14:25.820Z,7
2019-03-19T08:15:25.830Z,7
2019-03-19T08:16:27.490Z,7
2019-03-19T08:17:25.881Z,7
2019-03-19T08:18:26.042Z,7.1
2019-03-19T08:19:25.897Z,7.1
2019-03-19T08:20:25.929Z,7.1
2019-03-19T08:21:25.918Z,7.1
2019-03-19T08:22:25.944Z,7.1
2019-03-19T08:23:25.943Z,7.1
2019-03-19T08:24:25.962Z,7.1
2019-03-19T08:25:25.969Z,7.1
2019-03-19T08:26:25.991Z,7
2019-03-19T08:27:25.987Z,7
2019-03-19T08:28:26.034Z,6.9
2019-03-19T08:29:26.045Z,6.9
2019-03-19T08:30:26.050Z,6.8
2019-03-19T08:31:26.060Z,6.7
2019-03-19T08:32:26.117Z,6.6
2019-03-19T08:33:26.110Z,6.5
2019-03-19T08:34:26.123Z,6.5
2019-03-19T08:35:26.132Z,6.4
2019-03-19T08:36:26.175Z,6.3
2019-03-19T08:37:26.210Z,6.3
2019-03-19T08:38:26.567Z,6.2
2019-03-19T08:39:26.193Z,6.1
2019-03-19T08:40:26.229Z,6.1
2019-03-19T08:41:26.223Z,6
2019-03-19T08:42:26.257Z,5.9
2019-03-19T08:43:26.265Z,5.9
2019-03-19T08:44:27.799Z,5.9
2019-03-19T08:45:26.302Z,5.9
2019-03-19T08:46:26.308Z,5.9
2019-03-19T08:47:26.333Z,5.9
2019-03-19T08:48:26.342Z,5.9
2019-03-19T08:49:26.327Z,5.9
2019-03-19T08:50:26.363Z,6
2019-03-19T08:51:26.400Z,6
2019-03-19T08:52:26.374Z,6
2019-03-19T08:53:26.353Z,6
2019-03-19T08:54:26.401Z,6.1
2019-03-19T08:55:26.454Z,6.1
2019-03-19T08:56:26.454Z,6.2
2019-03-19T08:57:26.453Z,6.2
2019-03-19T08:58:26.487Z,6.3
2019-03-19T08:59:26.438Z,6.3
2019-03-19T09:00:26.467Z,6.3
2019-03-19T09:01:26.530Z,6.4
2019-03-19T09:02:26.495Z,6.5
2019-03-19T09:03:26.495Z,6.5
2019-03-19T09:04:26.506Z,6.6
2019-03-19T09:05:26.522Z,6.6
2019-03-19T09:06:26.548Z,6.7
2019-03-19T09:07:26.552Z,6.8
2019-03-19T09:08:27.030Z,6.9
2019-03-19T09:09:26.604Z,6.9
2019-03-19T09:10:26.621Z,7
2019-03-19T09:11:26.636Z,7
2019-03-19T09:12:26.616Z,7.1
2019-03-19T09:13:26.642Z,7.1
2019-03-19T09:14:26.622Z,7.2
2019-03-19T09:15:26.667Z,7.2
2019-03-19T09:16:26.683Z,7.3
2019-03-19T09:17:26.713Z,7.4
2019-03-19T09:18:26.670Z,7.5
2019-03-19T09:19:26.709Z,7.6
2019-03-19T09:20:26.700Z,7.6
2019-03-19T09:21:26.742Z,7.7
2019-03-19T09:22:29.706Z,7.8
2019-03-19T09:23:26.711Z,7.9
2019-03-19T09:24:26.766Z,8
2019-03-19T09:25:26.787Z,8.1
2019-03-19T09:26:26.922Z,8.2
2019-03-19T09:27:26.779Z,8.2
2019-03-19T09:28:26.794Z,8.3
2019-03-19T09:29:26.862Z,8.3
2019-03-19T09:30:26.808Z,8.4
2019-03-19T09:31:26.838Z,8.5
2019-03-19T09:32:26.861Z,8.5
2019-03-19T09:33:26.832Z,8.6
2019-03-19T09:34:26.857Z,8.8
2019-03-19T09:35:26.867Z,9
2019-03-19T09:36:26.977Z,9.1
2019-03-19T09:37:26.893Z,9.3
2019-03-19T09:38:26.942Z,9.4
2019-03-19T09:39:26.906Z,9.5
2019-03-19T09:40:26.907Z,9.6
2019-03-19T09:41:26.934Z,9.6
2019-03-19T09:42:26.923Z,9.6
2019-03-19T09:43:26.939Z,9.6
2019-03-19T09:44:27.979Z,9.5
2019-03-19T09:45:26.980Z,9.5
2019-03-19T09:46:26.968Z,9.4
2019-03-19T09:47:27.008Z,9.2
2019-03-19T09:48:28.269Z,9.1
2019-03-19T09:49:27.018Z,9
2019-03-19T09:50:27.039Z,9
2019-03-19T09:51:27.017Z,8.9
2019-03-19T09:52:27.077Z,8.9
2019-03-19T09:53:27.037Z,8.8
2019-03-19T09:54:27.086Z,8.8
2019-03-19T09:55:27.105Z,8.8
2019-03-19T09:56:27.110Z,8.9
2019-03-19T09:57:27.078Z,8.9
2019-03-19T09:58:27.127Z,8.9
2019-03-19T09:59:27.499Z,8.9
2019-03-19T10:00:27.191Z,8.9
2019-03-19T10:01:27.141Z,8.9
2019-03-19T10:02:27.155Z,8.9
2019-03-19T10:03:27.149Z,8.8
2019-03-19T10:04:27.181Z,8.8
2019-03-19T10:05:27.195Z,8.7
2019-03-19T10:06:27.170Z,8.7
2019-03-19T10:07:27.223Z,8.7
2019-03-19T10:08:27.220Z,8.7
2019-03-19T10:09:27.199Z,8.6
2019-03-19T10:10:27.253Z,8.6
2019-03-19T10:11:27.220Z,8.6
2019-03-19T10:12:27.213Z,8.5
2019-03-19T10:13:27.261Z,8.5
2019-03-19T10:14:59.580Z,8.5
2019-03-19T10:15:27.294Z,8.5
2019-03-19T10:16:27.276Z,8.5
2019-03-19T10:17:27.279Z,8.4
2019-03-19T10:18:27.261Z,8.5
2019-03-19T10:19:27.319Z,8.6
2019-03-19T10:20:27.349Z,8.7
2019-03-19T10:21:27.321Z,8.9
2019-03-19T10:22:27.791Z,9.1
2019-03-19T10:23:27.334Z,9.2
2019-03-19T10:24:27.340Z,9.4
2019-03-19T10:25:27.395Z,9.5
2019-03-19T10:26:27.365Z,9.6
2019-03-19T10:27:27.365Z,9.6
2019-03-19T10:28:27.416Z,9.6
2019-03-19T10:29:37.488Z,9.7
2019-03-19T10:30:27.415Z,9.7
2019-03-19T10:31:27.421Z,9.7
2019-03-19T10:32:27.450Z,9.6
2019-03-19T10:33:27.410Z,9.6
2019-03-19T10:34:27.415Z,9.6
2019-03-19T10:35:27.430Z,9.5
2019-03-19T10:36:27.460Z,9.4
2019-03-19T10:37:27.434Z,9.4
2019-03-19T10:38:27.474Z,9.3
2019-03-19T10:39:27.481Z,9.2
2019-03-19T10:40:27.500Z,9.2
2019-03-19T10:41:27.472Z,9.2
2019-03-19T10:42:27.503Z,9.2
2019-03-19T10:43:27.492Z,9.1
2019-03-19T10:44:27.502Z,9.1
2019-03-19T10:45:27.511Z,9
2019-03-19T10:46:28.503Z,8.9
2019-03-19T10:47:27.508Z,8.9
2019-03-19T10:48:27.492Z,8.9
2019-03-19T10:49:27.570Z,9
2019-03-19T10:50:27.505Z,9
2019-03-19T10:51:27.541Z,9
2019-03-19T10:52:27.546Z,9
2019-03-19T10:53:27.543Z,9
2019-03-19T10:54:27.533Z,9
2019-03-19T10:55:27.603Z,9
2019-03-19T10:56:27.573Z,9
2019-03-19T10:57:27.570Z,9
2019-03-19T10:58:27.578Z,9
2019-03-19T10:59:27.598Z,9
2019-03-19T11:00:27.586Z,9
2019-03-19T11:01:27.570Z,8.9
2019-03-19T11:02:27.604Z,8.9
2019-03-19T11:03:27.678Z,9
2019-03-19T11:04:27.623Z,9.1
2019-03-19T11:05:27.604Z,9.2
2019-03-19T11:06:27.621Z,9.4
2019-03-19T11:07:27.637Z,9.6
2019-03-19T11:08:27.602Z,9.8
2019-03-19T11:11:03.575Z,10.2
2019-03-19T11:11:27.704Z,10.3
2019-03-19T11:12:27.648Z,10.4
2019-03-19T11:13:27.631Z,10.6
2019-03-19T11:14:27.665Z,10.7
2019-03-19T11:15:27.673Z,10.8
2019-03-19T11:16:27.703Z,10.9
2019-03-19T11:17:28.542Z,10.8
2019-03-19T11:18:27.686Z,10.8
2019-03-19T11:19:27.711Z,10.7
2019-03-19T11:20:27.695Z,10.6
2019-03-19T11:21:27.691Z,10.5
2019-03-19T11:22:27.664Z,10.5
2019-03-19T11:23:27.686Z,10.5
2019-03-19T11:24:27.689Z,10.5
2019-03-19T11:25:28.725Z,10.5
2019-03-19T11:26:28.755Z,10.5
2019-03-19T11:27:29.918Z,10.6
2019-03-19T11:28:27.739Z,10.7
2019-03-19T11:29:27.754Z,10.8
2019-03-19T11:30:27.719Z,10.9
2019-03-19T11:31:27.703Z,11
2019-03-19T11:32:27.783Z,11.1
2019-03-19T11:33:27.721Z,11.1
2019-03-19T11:34:27.753Z,11.2
2019-03-19T11:35:27.750Z,11.3
2019-03-19T11:36:27.719Z,11.4
2019-03-19T11:37:27.787Z,11.5
2019-03-19T11:38:27.727Z,11.6
2019-03-19T11:39:27.723Z,11.6
2019-03-19T11:40:27.755Z,11.6
2019-03-19T11:41:27.730Z,11.5
2019-03-19T11:42:27.751Z,11.5
2019-03-19T11:43:27.787Z,11.6
2019-03-19T11:44:27.760Z,11.7
2019-03-19T11:45:27.747Z,11.8
2019-03-19T11:46:27.808Z,11.8
2019-03-19T11:47:27.796Z,11.9
2019-03-19T11:48:27.819Z,11.9
2019-03-19T11:49:27.776Z,11.8
2019-03-19T11:50:27.783Z,11.7
2019-03-19T11:51:27.814Z,11.5
2019-03-19T11:52:27.826Z,11.4
2019-03-19T11:53:27.776Z,11.3
2019-03-19T11:54:27.828Z,11.3
2019-03-19T11:55:27.812Z,11.2
2019-03-19T11:56:27.804Z,11.1
2019-03-19T11:57:27.816Z,11.1
2019-03-19T11:58:27.836Z,11
2019-03-19T11:59:27.811Z,10.9
2019-03-19T12:00:27.811Z,10.8
2019-03-19T12:01:27.812Z,10.7
2019-03-19T12:02:27.851Z,10.6
2019-03-19T12:03:27.840Z,10.5
2019-03-19T12:04:27.831Z,10.4
2019-03-19T12:05:27.837Z,10.2
2019-03-19T12:06:27.836Z,10.1
2019-03-19T12:07:27.903Z,10
2019-03-19T12:08:27.825Z,9.9
2019-03-19T12:09:27.885Z,9.8
2019-03-19T12:10:27.857Z,9.6
2019-03-19T12:11:27.855Z,9.5
2019-03-19T12:12:27.860Z,9.4
2019-03-19T12:13:27.839Z,9.3
2019-03-19T12:14:27.863Z,9.2
2019-03-19T12:15:27.865Z,9.1
2019-03-19T12:16:27.874Z,9
2019-03-19T12:17:27.922Z,8.9
2019-03-19T12:18:27.886Z,8.9
2019-03-19T12:19:27.869Z,8.9
2019-03-19T12:20:27.866Z,8.9
2019-03-19T12:21:27.922Z,8.9
2019-03-19T12:22:27.870Z,9
2019-03-19T12:23:27.915Z,9.1
2019-03-19T12:24:27.916Z,9.2
2019-03-19T12:25:27.917Z,9.2
2019-03-19T12:26:27.928Z,9.3
2019-03-19T12:27:27.894Z,9.4
2019-03-19T12:28:38.983Z,9.5
2019-03-19T12:29:27.922Z,9.5
2019-03-19T12:30:27.899Z,9.5
2019-03-19T12:31:27.902Z,9.6
2019-03-19T12:32:27.977Z,9.6
2019-03-19T12:33:27.929Z,9.6
2019-03-19T12:34:27.925Z,9.6
2019-03-19T12:35:30.448Z,9.6
2019-03-19T12:36:27.902Z,9.5
2019-03-19T12:37:27.918Z,9.5
2019-03-19T12:38:27.973Z,9.6
2019-03-19T12:39:27.921Z,9.6
2019-03-19T12:40:36.593Z,9.6
2019-03-19T12:41:27.945Z,9.5
2019-03-19T12:42:27.942Z,9.5
2019-03-19T12:43:27.987Z,9.5
2019-03-19T12:44:27.949Z,9.5
2019-03-19T12:45:27.984Z,9.6
2019-03-19T12:46:27.960Z,9.6
2019-03-19T12:47:27.980Z,9.6
2019-03-19T12:48:28.004Z,9.6
2019-03-19T12:49:27.991Z,9.6
2019-03-19T12:50:27.977Z,9.6
2019-03-19T12:51:27.988Z,9.6
2019-03-19T12:52:27.977Z,9.7
2019-03-19T12:53:28.012Z,9.7
2019-03-19T12:54:28.024Z,9.7
2019-03-19T12:55:28.041Z,9.8
2019-03-19T12:56:28.043Z,9.9
2019-03-19T12:57:28.026Z,10
2019-03-19T12:58:28.046Z,10.1
2019-03-19T12:59:28.020Z,10.2
2019-03-19T13:00:33.878Z,10.2
2019-03-19T13:01:28.608Z,10.3
2019-03-19T13:02:30.657Z,10.4
2019-03-19T13:03:28.064Z,10.4
2019-03-19T13:04:28.083Z,10.5
2019-03-19T13:05:28.065Z,10.5
2019-03-19T13:06:28.079Z,10.5
2019-03-19T13:07:28.110Z,10.6
2019-03-19T13:08:28.109Z,10.6
2019-03-19T13:09:28.122Z,10.6
2019-03-19T13:10:28.111Z,10.5
2019-03-19T13:11:28.130Z,10.5
2019-03-19T13:12:28.128Z,10.4
2019-03-19T13:13:30.389Z,10.4
2019-03-19T13:14:28.149Z,10.5
2019-03-19T13:15:28.157Z,10.5
2019-03-19T13:16:28.180Z,10.6
2019-03-19T13:17:28.241Z,10.7
2019-03-19T13:18:28.204Z,10.8
2019-03-19T13:19:28.191Z,10.9
2019-03-19T13:20:28.231Z,11
2019-03-19T13:21:28.212Z,11.1
2019-03-19T13:22:28.241Z,11.2
2019-03-19T13:23:28.223Z,11.2
2019-03-19T13:24:28.234Z,11.2
2019-03-19T13:25:28.228Z,11.2
2019-03-19T13:26:28.260Z,11.2
2019-03-19T13:27:28.275Z,11.1
2019-03-19T13:28:28.288Z,11.1
2019-03-19T13:29:28.313Z,11.1
2019-03-19T13:30:28.290Z,11.1
2019-03-19T13:31:28.311Z,11.1
2019-03-19T13:32:28.475Z,11.1
2019-03-19T13:33:28.347Z,11.1
2019-03-19T13:34:28.368Z,11.2
2019-03-19T13:35:28.331Z,11.2
2019-03-19T13:36:28.361Z,11.3
2019-03-19T13:37:28.342Z,11.3
2019-03-19T13:38:28.362Z,11.3
2019-03-19T13:39:28.404Z,11.3
2019-03-19T13:40:28.378Z,11.4
2019-03-19T13:41:28.434Z,11.4
2019-03-19T13:42:28.399Z,11.4
2019-03-19T13:43:28.430Z,11.5
2019-03-19T13:44:28.469Z,11.5
2019-03-19T13:45:28.547Z,11.5
2019-03-19T13:46:28.463Z,11.5
2019-03-19T13:47:28.460Z,11.5
2019-03-19T13:48:28.459Z,11.5
2019-03-19T13:49:28.469Z,11.5
2019-03-19T13:50:28.471Z,11.4
2019-03-19T13:51:28.484Z,11.3